createdAt,value
2018-06-24T00:00:16.306Z,13.50
2018-06-24T00:02:59.913Z,13.50
2018-06-24T00:05:31.738Z,13.50
2018-06-24T00:08:02.710Z,13.60
2018-06-24T00:10:33.622Z,13.50
2018-06-24T00:13:04.436Z,13.50
2018-06-24T00:15:35.013Z,13.50
2018-06-24T00:18:05.945Z,13.50
2018-06-24T00:20:36.740Z,13.60
2018-06-24T00:23:08.312Z,13.60
2018-06-24T00:25:38.898Z,13.50
2018-06-24T00:28:09.568Z,13.50
2018-06-24T00:30:39.975Z,13.50
2018-06-24T00:33:11.260Z,13.40
2018-06-24T00:35:41.789Z,13.40
2018-06-24T00:38:12.437Z,13.40
2018-06-24T00:40:43.047Z,13.30
2018-06-24T00:43:13.855Z,13.30
2018-06-24T00:45:44.933Z,13.30
2018-06-24T00:48:15.443Z,13.30
2018-06-24T00:50:45.944Z,13.30
2018-06-24T00:53:16.450Z,13.30
2018-06-24T00:55:47.037Z,13.30
2018-06-24T00:58:17.434Z,13.20
2018-06-24T01:00:48.061Z,13.20
2018-06-24T01:03:19.024Z,13.20
2018-06-24T01:05:49.692Z,13.20
2018-06-24T01:08:20.694Z,13.10
2018-06-24T01:10:51.374Z,13.10
2018-06-24T01:13:23.240Z,13.20
2018-06-24T01:15:53.688Z,13.10
2018-06-24T01:18:26.547Z,13.20
2018-06-24T01:20:57.806Z,13.20
2018-06-24T01:23:28.435Z,13.20
2018-06-24T01:28:29.300Z,13.20
2018-06-24T01:31:00.097Z,13.30
2018-06-24T01:33:30.278Z,13.20
2018-06-24T01:36:01.166Z,13.20
2018-06-24T01:38:31.627Z,13.10
2018-06-24T01:41:02.079Z,12.90
2018-06-24T01:43:32.240Z,12.90
2018-06-24T01:46:03.154Z,13.00
2018-06-24T01:48:33.775Z,12.90
2018-06-24T01:51:04.874Z,12.80
2018-06-24T01:53:35.186Z,12.90
2018-06-24T01:56:06.052Z,12.90
2018-06-24T01:58:36.615Z,12.90
2018-06-24T02:01:07.466Z,13.00
2018-06-24T02:03:37.853Z,13.00
2018-06-24T02:06:09.267Z,12.90
2018-06-24T02:08:39.878Z,13.00
2018-06-24T02:11:10.186Z,13.00
2018-06-24T02:13:40.530Z,13.00
2018-06-24T02:16:11.034Z,13.00
2018-06-24T02:18:41.379Z,13.10
2018-06-24T02:21:11.798Z,13.10
2018-06-24T02:23:42.886Z,13.10
2018-06-24T02:26:13.307Z,13.20
2018-06-24T02:28:43.798Z,13.20
2018-06-24T02:31:14.118Z,13.20
2018-06-24T02:33:44.671Z,13.20
2018-06-24T02:36:15.490Z,13.20
2018-06-24T02:38:46.048Z,13.10
2018-06-24T02:41:16.544Z,13.00
2018-06-24T02:43:46.860Z,13.00
2018-06-24T02:48:47.706Z,12.90
2018-06-24T02:51:18.100Z,12.90
2018-06-24T02:53:48.924Z,12.90
2018-06-24T02:56:19.603Z,12.90
2018-06-24T02:58:50.008Z,13.00
2018-06-24T03:01:20.518Z,13.00
2018-06-24T03:03:50.839Z,12.90
2018-06-24T03:06:21.614Z,12.90
2018-06-24T03:08:52.317Z,12.80
2018-06-24T03:11:23.635Z,12.80
2018-06-24T03:13:54.230Z,12.80
2018-06-24T03:16:24.639Z,12.70
2018-06-24T03:18:55.624Z,12.60
2018-06-24T03:21:26.025Z,12.60
2018-06-24T03:23:56.284Z,12.70
2018-06-24T03:26:27.498Z,12.70
2018-06-24T03:28:58.326Z,12.70
2018-06-24T03:31:28.879Z,12.70
2018-06-24T03:33:59.486Z,12.70
2018-06-24T03:36:29.958Z,12.70
2018-06-24T03:39:00.450Z,12.80
2018-06-24T03:41:31.019Z,12.80
2018-06-24T03:44:01.830Z,12.80
2018-06-24T03:46:32.754Z,12.80
2018-06-24T03:49:03.281Z,12.80
2018-06-24T03:51:34.128Z,12.80
2018-06-24T03:54:04.966Z,12.70
2018-06-24T03:56:35.342Z,12.60
2018-06-24T03:59:05.698Z,12.60
2018-06-24T04:01:37.015Z,12.60
2018-06-24T04:04:07.544Z,12.60
2018-06-24T04:06:37.891Z,12.70
2018-06-24T04:09:08.950Z,12.70
2018-06-24T04:11:39.732Z,12.70
2018-06-24T04:14:10.085Z,12.70
2018-06-24T04:16:40.383Z,12.70
2018-06-24T04:19:10.842Z,12.80
2018-06-24T04:21:41.561Z,12.80
2018-06-24T04:24:11.767Z,12.90
2018-06-24T04:26:42.524Z,12.90
2018-06-24T04:29:12.823Z,13.00
2018-06-24T04:31:43.817Z,12.90
2018-06-24T04:34:14.426Z,12.90
2018-06-24T04:36:45.533Z,12.80
2018-06-24T04:39:15.942Z,12.80
2018-06-24T04:44:16.570Z,12.90
2018-06-24T04:46:47.606Z,13.00
2018-06-24T04:49:18.226Z,13.00
2018-06-24T04:51:48.654Z,13.10
2018-06-24T04:54:19.675Z,13.10
2018-06-24T04:56:50.317Z,13.10
2018-06-24T04:59:20.796Z,13.10
2018-06-24T05:01:51.890Z,13.20
2018-06-24T05:04:22.722Z,13.10
2018-06-24T05:06:53.266Z,13.20
2018-06-24T05:09:24.026Z,13.30
2018-06-24T05:11:55.137Z,13.30
2018-06-24T05:14:26.333Z,13.40
2018-06-24T05:16:56.870Z,13.40
2018-06-24T05:19:27.556Z,13.50
2018-06-24T05:21:58.594Z,13.50
2018-06-24T05:24:29.676Z,13.60
2018-06-24T05:27:00.094Z,13.60
2018-06-24T05:29:30.814Z,13.60
2018-06-24T05:32:02.911Z,13.70
2018-06-24T05:34:33.318Z,13.70
2018-06-24T05:37:03.659Z,13.70
2018-06-24T05:39:34.230Z,13.70
2018-06-24T05:42:05.639Z,13.70
2018-06-24T05:44:36.610Z,13.70
2018-06-24T05:47:07.363Z,13.70
2018-06-24T05:49:38.218Z,13.80
2018-06-24T05:52:08.960Z,13.80
2018-06-24T05:54:39.549Z,13.70
2018-06-24T05:57:10.495Z,13.80
2018-06-24T05:59:41.070Z,13.80
2018-06-24T06:02:11.845Z,13.80
2018-06-24T06:04:42.542Z,13.80
2018-06-24T06:07:13.551Z,13.80
2018-06-24T06:09:44.205Z,13.80
2018-06-24T06:12:14.861Z,13.80
2018-06-24T06:14:45.757Z,13.70
2018-06-24T06:17:16.436Z,13.70
2018-06-24T06:22:17.106Z,13.80
2018-06-24T06:24:47.606Z,13.90
2018-06-24T06:27:18.086Z,13.90
2018-06-24T06:29:48.970Z,14.00
2018-06-24T06:34:50.013Z,14.10
2018-06-24T06:37:20.540Z,14.10
2018-06-24T06:39:51.006Z,14.20
2018-06-24T06:42:21.648Z,14.20
2018-06-24T06:44:52.315Z,14.30
2018-06-24T06:47:22.911Z,14.40
2018-06-24T06:49:53.442Z,14.40
2018-06-24T06:52:24.039Z,14.50
2018-06-24T06:54:56.901Z,14.50
2018-06-24T06:57:27.532Z,14.60
2018-06-24T06:59:58.350Z,14.60
2018-06-24T07:02:28.850Z,14.50
2018-06-24T07:04:59.469Z,14.60
2018-06-24T07:07:30.203Z,14.60
2018-06-24T07:10:02.094Z,14.60
2018-06-24T07:12:32.586Z,14.60
2018-06-24T07:15:03.121Z,14.70
2018-06-24T07:17:33.699Z,14.70
2018-06-24T07:20:05.062Z,14.80
2018-06-24T07:22:35.915Z,14.90
2018-06-24T07:25:06.582Z,15.10
2018-06-24T07:27:37.353Z,15.20
2018-06-24T07:30:08.427Z,15.20
2018-06-24T07:32:38.942Z,15.30
2018-06-24T07:35:10.259Z,15.30
2018-06-24T07:37:41.415Z,15.40
2018-06-24T07:40:12.554Z,15.40
2018-06-24T07:42:44.243Z,15.40
2018-06-24T07:45:15.720Z,15.40
2018-06-24T07:47:50.612Z,15.40
2018-06-24T07:50:22.836Z,15.40
2018-06-24T07:52:54.155Z,15.30
2018-06-24T07:55:27.803Z,15.20
2018-06-24T07:57:58.768Z,15.00
2018-06-24T08:00:29.618Z,15.00
2018-06-24T08:03:00.882Z,15.00
2018-06-24T08:05:31.617Z,14.90
2018-06-24T08:08:03.197Z,15.00
2018-06-24T08:10:34.345Z,15.00
2018-06-24T08:13:05.923Z,15.00
2018-06-24T08:15:36.901Z,15.00
2018-06-24T08:18:07.906Z,15.00
2018-06-24T08:20:40.818Z,14.90
2018-06-24T08:23:11.664Z,14.90
2018-06-24T08:25:43.321Z,14.90
2018-06-24T08:28:14.231Z,14.90
2018-06-24T08:30:44.970Z,14.90
2018-06-24T08:33:16.305Z,14.80
2018-06-24T08:35:47.074Z,14.80
2018-06-24T08:38:17.937Z,14.80
2018-06-24T08:40:48.555Z,14.90
2018-06-24T08:43:18.939Z,14.90
2018-06-24T08:45:49.851Z,14.90
2018-06-24T08:48:20.404Z,15.00
2018-06-24T08:50:50.842Z,15.00
2018-06-24T08:53:21.110Z,15.00
2018-06-24T08:55:51.950Z,15.00
2018-06-24T08:58:22.785Z,15.10
2018-06-24T09:00:53.661Z,15.10
2018-06-24T09:03:24.042Z,15.20
2018-06-24T09:05:54.714Z,15.20
2018-06-24T09:08:25.131Z,15.30
2018-06-24T09:10:55.955Z,15.40
2018-06-24T09:13:26.642Z,15.40
2018-06-24T09:15:57.723Z,15.40
2018-06-24T09:18:28.071Z,15.50
2018-06-24T09:20:58.367Z,15.60
2018-06-24T09:23:29.134Z,15.70
2018-06-24T09:26:00.091Z,15.70
2018-06-24T09:28:30.751Z,15.60
2018-06-24T09:31:01.643Z,15.50
2018-06-24T09:36:03.311Z,15.20
2018-06-24T09:38:33.965Z,15.10
2018-06-24T09:41:06.278Z,15.10
2018-06-24T09:43:36.992Z,15.00
2018-06-24T09:46:07.830Z,15.00
2018-06-24T09:48:39.137Z,15.10
2018-06-24T09:51:10.304Z,15.20
2018-06-24T09:53:40.921Z,15.20
2018-06-24T09:58:43.078Z,15.30
2018-06-24T10:01:13.767Z,15.40
2018-06-24T10:03:44.511Z,15.50
2018-06-24T10:06:15.377Z,15.60
2018-06-24T10:08:45.961Z,15.70
2018-06-24T10:11:16.875Z,15.80
2018-06-24T10:18:47.568Z,15.60
2018-06-24T10:21:18.480Z,15.60
2018-06-24T10:23:49.131Z,15.80
2018-06-24T10:28:50.103Z,16.00
2018-06-24T10:31:20.759Z,16.10
2018-06-24T10:33:51.218Z,16.10
2018-06-24T10:36:21.751Z,16.10
2018-06-24T10:38:52.174Z,16.10
2018-06-24T10:41:22.620Z,16.00
2018-06-24T10:43:53.037Z,16.00
2018-06-24T10:46:23.643Z,16.00
2018-06-24T10:48:54.218Z,16.00
2018-06-24T10:51:25.361Z,15.80
2018-06-24T10:53:55.886Z,15.60
2018-06-24T10:56:26.588Z,15.70
2018-06-24T10:58:56.971Z,15.90
2018-06-24T11:01:27.265Z,16.00
2018-06-24T11:03:58.306Z,16.10
2018-06-24T11:06:28.788Z,16.20
2018-06-24T11:08:59.222Z,16.20
2018-06-24T11:11:29.799Z,16.20
2018-06-24T11:14:00.171Z,16.20
2018-06-24T11:16:31.217Z,16.20
2018-06-24T11:19:01.801Z,16.00
2018-06-24T11:21:32.610Z,16.00
2018-06-24T11:24:03.400Z,16.00
2018-06-24T11:26:34.023Z,16.00
2018-06-24T11:31:37.329Z,16.10
2018-06-24T11:34:08.061Z,16.00
2018-06-24T11:36:38.784Z,16.10
2018-06-24T11:39:11.027Z,16.20
2018-06-24T11:41:41.606Z,16.40
2018-06-24T11:44:11.970Z,16.50
2018-06-24T11:46:42.634Z,16.60
2018-06-24T11:49:13.534Z,16.60
2018-06-24T11:51:43.897Z,16.60
2018-06-24T11:54:14.328Z,16.60
2018-06-24T11:56:45.036Z,16.50
2018-06-24T11:59:15.924Z,16.60
2018-06-24T12:01:46.519Z,16.70
2018-06-24T12:04:17.180Z,16.70
2018-06-24T12:06:48.012Z,16.70
2018-06-24T12:11:49.131Z,16.50
2018-06-24T12:14:19.663Z,16.50
2018-06-24T12:16:50.644Z,16.40
2018-06-24T12:19:21.288Z,16.60
2018-06-24T12:21:51.754Z,16.90
2018-06-24T12:26:52.674Z,17.70
2018-06-24T12:29:23.439Z,17.50
2018-06-24T12:31:54.034Z,17.40
2018-06-24T12:34:24.841Z,17.30
2018-06-24T12:36:55.178Z,17.10
2018-06-24T12:39:25.399Z,16.90
2018-06-24T12:41:55.805Z,16.80
2018-06-24T12:44:26.473Z,16.70
2018-06-24T12:46:57.140Z,16.50
2018-06-24T12:49:28.206Z,16.50
2018-06-24T12:51:59.073Z,16.60
2018-06-24T12:54:29.930Z,16.70
2018-06-24T12:57:00.408Z,16.70
2018-06-24T13:02:01.662Z,16.70
2018-06-24T13:04:32.179Z,16.60
2018-06-24T13:07:02.771Z,16.60
2018-06-24T13:09:33.671Z,16.60
2018-06-24T13:12:04.362Z,16.80
2018-06-24T13:14:34.697Z,16.70
2018-06-24T13:17:05.788Z,16.80
2018-06-24T13:19:36.650Z,16.80
2018-06-24T13:22:07.461Z,16.70
2018-06-24T13:24:38.481Z,16.70
2018-06-24T13:27:09.098Z,16.70
2018-06-24T13:29:39.621Z,16.60
2018-06-24T13:32:10.051Z,16.30
2018-06-24T13:34:40.917Z,16.30
2018-06-24T13:37:11.366Z,16.30
2018-06-24T13:39:41.734Z,16.30
2018-06-24T13:42:12.501Z,16.10
2018-06-24T13:44:45.314Z,16.10
2018-06-24T13:47:16.091Z,16.20
2018-06-24T13:49:46.804Z,16.20
2018-06-24T13:52:17.924Z,16.20
2018-06-24T13:54:48.218Z,16.30
2018-06-24T13:57:18.934Z,16.30
2018-06-24T13:59:49.655Z,16.40
2018-06-24T14:04:53.229Z,16.60
2018-06-24T14:07:23.886Z,16.70
2018-06-24T14:09:54.568Z,16.70
2018-06-24T14:12:26.404Z,16.70
2018-06-24T14:14:56.950Z,16.70
2018-06-24T14:17:27.929Z,16.70
2018-06-24T14:19:59.232Z,16.70
2018-06-24T14:22:29.922Z,16.70
2018-06-24T14:25:00.579Z,16.60
2018-06-24T14:27:31.516Z,16.60
2018-06-24T14:30:02.097Z,16.60
2018-06-24T14:35:02.508Z,16.60
2018-06-24T14:37:33.334Z,16.70
2018-06-24T14:40:03.911Z,16.60
2018-06-24T14:42:34.339Z,16.60
2018-06-24T14:45:05.228Z,16.60
2018-06-24T14:47:35.590Z,16.60
2018-06-24T14:50:06.463Z,16.80
2018-06-24T14:52:36.903Z,17.00
2018-06-24T14:55:07.390Z,17.10
2018-06-24T14:57:37.922Z,17.10
2018-06-24T15:00:09.912Z,16.90
2018-06-24T15:02:41.526Z,16.90
2018-06-24T15:05:13.082Z,16.80
2018-06-24T15:07:43.965Z,16.80
2018-06-24T15:10:14.794Z,16.70
2018-06-24T15:12:45.358Z,16.70
2018-06-24T15:15:16.210Z,16.50
2018-06-24T15:17:47.020Z,16.30
2018-06-24T15:20:19.415Z,16.40
2018-06-24T15:25:20.054Z,16.50
2018-06-24T15:27:50.634Z,16.60
2018-06-24T15:30:21.134Z,16.60
2018-06-24T15:32:51.490Z,16.60
2018-06-24T15:35:22.042Z,16.60
2018-06-24T15:37:52.747Z,16.60
2018-06-24T15:42:55.747Z,16.60
2018-06-24T15:45:34.893Z,16.60
2018-06-24T15:48:08.462Z,16.60
2018-06-24T15:50:39.128Z,16.60
2018-06-24T15:53:10.548Z,16.50
2018-06-24T15:55:42.050Z,16.50
2018-06-24T15:58:12.755Z,16.40
2018-06-24T16:00:45.915Z,16.40
2018-06-24T16:03:16.574Z,16.40
2018-06-24T16:05:46.977Z,16.40
2018-06-24T16:10:48.006Z,16.30
2018-06-24T16:13:18.590Z,16.30
2018-06-24T16:15:49.263Z,16.30
2018-06-24T16:18:20.047Z,16.30
2018-06-24T16:20:50.561Z,16.20
2018-06-24T16:23:21.336Z,16.20
2018-06-24T16:25:52.400Z,16.30
2018-06-24T16:28:22.901Z,16.50
2018-06-24T16:30:53.394Z,16.60
2018-06-24T16:33:29.158Z,16.40
2018-06-24T16:36:06.264Z,16.40
2018-06-24T16:38:36.785Z,16.40
2018-06-24T16:41:07.502Z,16.10
2018-06-24T16:43:38.175Z,16.10
2018-06-24T16:46:08.807Z,16.10
2018-06-24T16:48:39.223Z,16.10
2018-06-24T16:51:12.001Z,16.10
2018-06-24T16:53:42.940Z,16.10
2018-06-24T16:56:15.110Z,16.10
2018-06-24T16:58:46.098Z,16.20
2018-06-24T17:03:50.353Z,16.20
2018-06-24T17:06:22.150Z,16.10
2018-06-24T17:08:53.167Z,16.10
2018-06-24T17:11:23.871Z,16.10
2018-06-24T17:13:54.946Z,16.20
2018-06-24T17:16:25.587Z,16.20
2018-06-24T17:18:56.411Z,16.10
2018-06-24T17:21:27.938Z,16.20
2018-06-24T17:23:59.107Z,16.20
2018-06-24T17:26:31.438Z,16.20
2018-06-24T17:29:02.397Z,16.20
2018-06-24T17:31:32.929Z,16.30
2018-06-24T17:34:12.722Z,16.30
2018-06-24T17:36:43.730Z,16.30
2018-06-24T17:39:14.216Z,16.30
2018-06-24T17:41:46.300Z,16.30
2018-06-24T17:44:17.649Z,16.30
2018-06-24T17:46:48.824Z,16.20
2018-06-24T17:49:19.389Z,16.30
2018-06-24T17:51:50.304Z,16.30
2018-06-24T17:54:21.478Z,16.40
2018-06-24T17:56:51.919Z,16.40
2018-06-24T17:59:22.505Z,16.40
2018-06-24T18:01:53.442Z,16.40
2018-06-24T18:06:53.907Z,16.40
2018-06-24T18:09:25.007Z,16.40
2018-06-24T18:11:55.883Z,16.40
2018-06-24T18:14:26.529Z,16.40
2018-06-24T18:16:57.611Z,16.40
2018-06-24T18:19:28.513Z,16.30
2018-06-24T18:21:59.202Z,16.30
2018-06-24T18:24:29.486Z,16.20
2018-06-24T18:27:00.234Z,16.20
2018-06-24T18:29:31.018Z,16.10
2018-06-24T18:32:02.022Z,16.10
2018-06-24T18:34:32.690Z,16.00
2018-06-24T18:37:03.268Z,16.00
2018-06-24T18:39:33.858Z,16.00
2018-06-24T18:42:04.538Z,16.00
2018-06-24T18:44:35.180Z,16.00
2018-06-24T18:47:05.886Z,15.90
2018-06-24T18:49:36.834Z,15.90
2018-06-24T18:52:07.542Z,15.90
2018-06-24T18:54:37.898Z,15.90
2018-06-24T18:57:08.974Z,15.80
2018-06-24T18:59:39.846Z,15.90
2018-06-24T19:02:10.731Z,15.90
2018-06-24T19:04:41.691Z,15.90
2018-06-24T19:07:12.530Z,15.80
2018-06-24T19:09:43.197Z,15.80
2018-06-24T19:12:14.114Z,15.80
2018-06-24T19:14:45.537Z,15.70
2018-06-24T19:17:15.967Z,15.70
2018-06-24T19:19:46.628Z,15.70
2018-06-24T19:22:17.226Z,15.70
2018-06-24T19:24:47.543Z,15.70
2018-06-24T19:27:18.255Z,15.60
2018-06-24T19:29:48.978Z,15.50
2018-06-24T19:32:19.483Z,15.60
2018-06-24T19:34:50.041Z,15.50
2018-06-24T19:37:22.262Z,15.50
2018-06-24T19:39:52.826Z,15.50
2018-06-24T19:44:53.138Z,15.50
2018-06-24T19:47:24.389Z,15.50
2018-06-24T19:49:54.771Z,15.50
2018-06-24T19:52:25.593Z,15.50
2018-06-24T19:54:56.078Z,15.50
2018-06-24T19:57:26.924Z,15.50
2018-06-24T19:59:57.835Z,15.50
2018-06-24T20:02:28.605Z,15.40
2018-06-24T20:04:59.180Z,15.40
2018-06-24T20:07:29.710Z,15.40
2018-06-24T20:10:00.674Z,15.30
2018-06-24T20:12:31.357Z,15.40
2018-06-24T20:15:02.475Z,15.40
2018-06-24T20:17:33.111Z,15.30
2018-06-24T20:20:03.777Z,15.30
2018-06-24T20:22:34.646Z,15.30
2018-06-24T20:25:05.214Z,15.20
2018-06-24T20:27:36.396Z,15.20
2018-06-24T20:30:08.170Z,15.20
2018-06-24T20:32:38.667Z,15.20
2018-06-24T20:35:09.186Z,15.10
2018-06-24T20:37:39.839Z,15.20
2018-06-24T20:40:10.977Z,15.20
2018-06-24T20:42:41.603Z,15.10
2018-06-24T20:45:12.082Z,15.10
2018-06-24T20:47:42.619Z,15.00
2018-06-24T20:52:43.152Z,15.10
2018-06-24T20:55:13.643Z,15.10
2018-06-24T20:57:44.078Z,15.10
2018-06-24T21:00:14.803Z,15.10
2018-06-24T21:02:45.748Z,15.10
2018-06-24T21:05:16.154Z,15.00
2018-06-24T21:07:46.738Z,15.00
2018-06-24T21:10:17.326Z,14.90
2018-06-24T21:12:48.125Z,14.90
2018-06-24T21:15:18.958Z,14.90
2018-06-24T21:17:49.815Z,14.90
2018-06-24T21:20:20.606Z,14.90
2018-06-24T21:22:51.250Z,14.80
2018-06-24T21:25:22.098Z,14.80
2018-06-24T21:27:52.646Z,14.80
2018-06-24T21:30:23.195Z,14.80
2018-06-24T21:32:54.215Z,14.80
2018-06-24T21:35:24.914Z,14.90
2018-06-24T21:37:55.787Z,14.80
2018-06-24T21:40:26.769Z,14.70
2018-06-24T21:42:57.927Z,14.70
2018-06-24T21:45:28.508Z,14.70
2018-06-24T21:47:59.486Z,14.70
2018-06-24T21:50:30.034Z,14.70
2018-06-24T21:53:00.507Z,14.70
2018-06-24T21:58:01.377Z,14.70
2018-06-24T22:03:03.308Z,14.60
2018-06-24T22:05:34.259Z,14.60
2018-06-24T22:08:06.666Z,14.60
2018-06-24T22:10:37.558Z,14.50
2018-06-24T22:13:08.794Z,14.60
2018-06-24T22:15:39.201Z,14.50
2018-06-24T22:18:09.846Z,14.50
2018-06-24T22:20:41.961Z,14.40
2018-06-24T22:23:12.419Z,14.40
2018-06-24T22:25:43.098Z,14.30
2018-06-24T22:28:13.882Z,14.40
2018-06-24T22:30:44.626Z,14.30
2018-06-24T22:33:15.524Z,14.30
2018-06-24T22:35:46.162Z,14.30
2018-06-24T22:38:16.984Z,14.30
2018-06-24T22:40:47.962Z,14.30
2018-06-24T22:43:21.304Z,14.30
2018-06-24T22:45:52.924Z,14.20
2018-06-24T22:48:23.788Z,14.30
2018-06-24T22:50:54.229Z,14.30
2018-06-24T22:53:24.831Z,14.20
2018-06-24T22:55:55.167Z,14.20
2018-06-24T22:58:25.872Z,14.20
2018-06-24T23:00:57.018Z,14.20
2018-06-24T23:03:27.608Z,14.20
2018-06-24T23:05:58.457Z,14.20
2018-06-24T23:08:29.074Z,14.20
2018-06-24T23:10:59.618Z,14.20
2018-06-24T23:13:30.482Z,14.10
2018-06-24T23:16:01.080Z,14.10
2018-06-24T23:18:32.884Z,14.10
2018-06-24T23:21:03.598Z,14.10
2018-06-24T23:23:34.323Z,14.10
2018-06-24T23:26:04.930Z,14.10
2018-06-24T23:28:35.921Z,14.20
2018-06-24T23:33:36.847Z,14.20
2018-06-24T23:36:07.369Z,14.20
2018-06-24T23:38:40.327Z,14.20
2018-06-24T23:41:10.715Z,14.20
2018-06-24T23:43:41.253Z,14.20
2018-06-24T23:46:12.437Z,14.20
2018-06-24T23:48:43.321Z,14.10
2018-06-24T23:51:14.118Z,14.20
2018-06-24T23:53:44.426Z,14.20
2018-06-24T23:56:14.889Z,14.10
2018-06-24T23:58:45.455Z,14.10
